createdAt,value
2022-09-20T00:02:49.046Z,100807.06
2022-09-20T00:05:51.988Z,100813.31
2022-09-20T00:08:55.493Z,100818.53
2022-09-20T00:11:58.442Z,100822.06
2022-09-20T00:15:02.880Z,100824.13
2022-09-20T00:18:06.033Z,100822.25
2022-09-20T00:21:15.620Z,100830.34
2022-09-20T00:24:19.239Z,100825.44
2022-09-20T00:27:22.197Z,100832.50
2022-09-20T00:30:26.518Z,100831.84
2022-09-20T00:33:49.936Z,100825.53
2022-09-20T00:36:51.989Z,100828.25
2022-09-20T00:39:55.035Z,100820.56
2022-09-20T00:42:57.978Z,100823.50
2022-09-20T00:46:03.868Z,100834.66
2022-09-20T00:49:14.735Z,100833.00
2022-09-20T00:52:18.728Z,100836.00
2022-09-20T00:55:22.525Z,100831.09
2022-09-20T00:58:28.581Z,100824.94
2022-09-20T01:01:33.360Z,100827.72
2022-09-20T01:04:40.250Z,100828.06
2022-09-20T01:07:44.970Z,100825.75
2022-09-20T01:10:48.895Z,100828.41
2022-09-20T01:13:51.901Z,100820.63
2022-09-20T01:16:58.916Z,100821.44
2022-09-20T01:20:13.051Z,100828.50
2022-09-20T01:23:38.558Z,100823.72
2022-09-20T01:27:05.546Z,100819.34
2022-09-20T01:30:13.883Z,100816.63
2022-09-20T01:33:26.549Z,100817.47
2022-09-20T01:36:37.952Z,100817.69
2022-09-20T01:39:52.492Z,100819.34
2022-09-20T01:43:07.135Z,100822.03
2022-09-20T01:46:31.640Z,100819.56
2022-09-20T01:49:45.157Z,100822.22
2022-09-20T01:53:36.093Z,100824.81
2022-09-20T01:57:16.107Z,100817.47
2022-09-20T02:00:23.234Z,100828.34
2022-09-20T02:03:56.054Z,100836.22
2022-09-20T02:07:19.503Z,100838.63
2022-09-20T02:10:59.016Z,100852.47
2022-09-20T02:14:31.439Z,100845.59
2022-09-20T02:17:50.178Z,100847.16
2022-09-20T02:21:05.902Z,100843.00
2022-09-20T02:24:24.026Z,100852.56
2022-09-20T02:27:42.268Z,100857.75
2022-09-20T02:30:56.393Z,100857.38
2022-09-20T02:34:24.110Z,100856.56
2022-09-20T02:38:02.210Z,100854.72
2022-09-20T02:41:48.461Z,100852.84
2022-09-20T02:45:00.997Z,100852.84
2022-09-20T02:48:06.172Z,100852.84
2022-09-20T02:51:21.668Z,100844.94
2022-09-20T02:54:36.403Z,100855.16
2022-09-20T02:57:51.747Z,100849.97
2022-09-20T03:01:01.987Z,100856.16
2022-09-20T03:04:22.283Z,100856.16
2022-09-20T03:07:34.843Z,100859.53
2022-09-20T03:10:46.448Z,100861.56
2022-09-20T03:14:10.268Z,100867.50
2022-09-20T03:17:24.065Z,100868.44
2022-09-20T03:20:36.345Z,100873.63
2022-09-20T03:23:54.845Z,100869.00
2022-09-20T03:27:09.216Z,100870.47
2022-09-20T03:30:29.291Z,100869.75
2022-09-20T03:33:44.874Z,100874.28
2022-09-20T03:37:09.923Z,100874.19
2022-09-20T03:40:54.061Z,100871.81
2022-09-20T03:44:28.174Z,100873.81
2022-09-20T03:47:54.556Z,100869.44
2022-09-20T03:51:23.594Z,100874.09
2022-09-20T03:55:09.388Z,100862.69
2022-09-20T03:58:27.730Z,100862.47
2022-09-20T04:01:55.326Z,100861.44
2022-09-20T04:05:02.599Z,100863.56
2022-09-20T04:08:19.738Z,100874.59
2022-09-20T04:11:30.386Z,100874.41
2022-09-20T04:14:41.687Z,100883.88
2022-09-20T04:17:54.559Z,100887.13
2022-09-20T04:21:06.208Z,100892.22
2022-09-20T04:24:21.307Z,100898.78
2022-09-20T04:27:30.247Z,100889.31
2022-09-20T04:30:39.103Z,100889.53
2022-09-20T04:33:49.692Z,100885.44
2022-09-20T04:36:58.573Z,100891.47
2022-09-20T04:40:25.027Z,100896.69
2022-09-20T04:44:28.188Z,100890.66
2022-09-20T04:48:14.450Z,100893.78
2022-09-20T04:52:00.796Z,100889.53
2022-09-20T04:55:44.439Z,100886.19
2022-09-20T04:59:05.838Z,100900.00
2022-09-20T05:02:43.813Z,100896.50
2022-09-20T05:06:46.630Z,100902.06
2022-09-20T05:10:16.893Z,100911.63
2022-09-20T05:13:38.301Z,100909.88
2022-09-20T05:17:03.872Z,100916.38
2022-09-20T05:20:40.359Z,100923.13
2022-09-20T05:24:29.210Z,100932.31
2022-09-20T05:27:44.939Z,100928.59
2022-09-20T05:30:51.054Z,100934.63
2022-09-20T05:34:03.024Z,100937.78
2022-09-20T05:37:15.322Z,100938.31
2022-09-20T05:40:29.056Z,100942.41
2022-09-20T05:43:36.031Z,100945.34
2022-09-20T05:46:54.700Z,100957.22
2022-09-20T05:50:16.103Z,100972.25
2022-09-20T05:54:12.067Z,100978.75
2022-09-20T05:57:32.549Z,100981.81
2022-09-20T06:00:43.809Z,100987.38
2022-09-20T06:03:54.501Z,100994.78
2022-09-20T06:07:07.526Z,101004.88
2022-09-20T06:10:47.247Z,101018.25
2022-09-20T06:14:10.595Z,101031.22
2022-09-20T06:17:27.122Z,101042.06
2022-09-20T06:20:35.185Z,101036.88
2022-09-20T06:23:38.255Z,101049.59
2022-09-20T06:26:44.601Z,101052.44
2022-09-20T06:29:54.226Z,101069.50
2022-09-20T06:33:00.760Z,101088.56
2022-09-20T06:36:23.789Z,101079.63
2022-09-20T06:39:55.251Z,101094.31
2022-09-20T06:43:00.248Z,101087.34
2022-09-20T06:46:03.207Z,101094.84
2022-09-20T06:49:09.561Z,101103.22
2022-09-20T06:52:15.816Z,101100.84
2022-09-20T06:55:29.021Z,101098.47
2022-09-20T06:58:32.648Z,101110.97
2022-09-20T07:01:36.076Z,101121.53
2022-09-20T07:04:40.397Z,101135.94
2022-09-20T07:07:44.399Z,101139.16
2022-09-20T07:10:47.878Z,101147.50
2022-09-20T07:13:53.985Z,101150.63
2022-09-20T07:16:56.935Z,101146.06
2022-09-20T07:20:01.666Z,101152.53
2022-09-20T07:23:04.981Z,101157.50
2022-09-20T07:26:18.188Z,101146.53
2022-09-20T07:29:21.784Z,101149.31
2022-09-20T07:32:24.928Z,101156.78
2022-09-20T07:35:29.669Z,101149.63
2022-09-20T07:38:34.794Z,101144.91
2022-09-20T07:41:37.859Z,101148.03
2022-09-20T07:44:42.312Z,101148.66
2022-09-20T07:47:46.649Z,101148.78
2022-09-20T07:50:56.413Z,101151.53
2022-09-20T07:53:59.518Z,101163.13
2022-09-20T07:57:02.978Z,101165.31
2022-09-20T08:00:12.746Z,101164.81
2022-09-20T08:03:16.372Z,101183.53
2022-09-20T08:06:21.413Z,101187.56
2022-09-20T08:09:24.548Z,101205.13
2022-09-20T08:15:50.892Z,101204.47
2022-09-20T08:18:57.090Z,101209.78
2022-09-20T08:22:01.952Z,101209.47
2022-09-20T08:25:07.210Z,101215.41
2022-09-20T08:28:10.171Z,101232.31
2022-09-20T08:31:16.244Z,101242.38
2022-09-20T08:34:19.790Z,101237.31
2022-09-20T08:37:24.106Z,101238.88
2022-09-20T08:40:27.783Z,101258.06
2022-09-20T08:43:37.506Z,101271.25
2022-09-20T08:46:44.888Z,101279.53
2022-09-20T08:49:48.099Z,101286.78
2022-09-20T08:53:00.142Z,101293.03
2022-09-20T08:56:04.758Z,101308.25
2022-09-20T08:59:16.134Z,101312.56
2022-09-20T09:02:22.660Z,101322.88
2022-09-20T09:05:38.952Z,101321.94
2022-09-20T09:08:49.199Z,101323.41
2022-09-20T09:11:54.238Z,101325.88
2022-09-20T09:15:02.064Z,101337.88
2022-09-20T09:18:10.318Z,101337.63
2022-09-20T09:21:20.400Z,101343.94
2022-09-20T09:24:25.806Z,101341.69
2022-09-20T09:27:31.192Z,101344.28
2022-09-20T09:30:37.205Z,101353.34
2022-09-20T09:33:45.053Z,101357.72
2022-09-20T09:36:48.575Z,101357.59
2022-09-20T09:40:11.142Z,101364.72
2022-09-20T09:43:23.398Z,101359.50
2022-09-20T09:46:28.815Z,101365.97
2022-09-20T09:49:36.089Z,101376.69
2022-09-20T09:52:40.131Z,101358.00
2022-09-20T09:56:23.720Z,101366.94
2022-09-20T09:59:43.296Z,101364.00
2022-09-20T10:03:23.285Z,101373.63
2022-09-20T10:06:33.706Z,101375.75
2022-09-20T10:09:56.122Z,101351.91
2022-09-20T10:13:12.883Z,101359.63
2022-09-20T10:16:29.301Z,101367.69
2022-09-20T10:19:57.817Z,101366.50
2022-09-20T10:27:15.593Z,101361.97
2022-09-20T10:30:23.714Z,101369.22
2022-09-20T10:33:37.525Z,101373.00
2022-09-20T10:36:50.651Z,101373.34
2022-09-20T10:40:08.315Z,101365.69
2022-09-20T10:43:31.061Z,101372.84
2022-09-20T10:46:54.833Z,101375.25
2022-09-20T10:50:08.759Z,101381.28
2022-09-20T10:53:30.286Z,101378.88
2022-09-20T10:56:37.926Z,101363.59
2022-09-20T10:59:48.727Z,101342.72
2022-09-20T11:03:17.136Z,101343.28
2022-09-20T11:06:27.946Z,101328.19
2022-09-20T11:09:35.596Z,101305.97
2022-09-20T11:12:44.823Z,101316.09
2022-09-20T11:15:55.837Z,101326.31
2022-09-20T11:19:07.336Z,101354.31
2022-09-20T11:22:16.964Z,101367.34
2022-09-20T11:25:29.345Z,101336.25
2022-09-20T11:28:38.915Z,101325.69
2022-09-20T11:31:46.281Z,101297.16
2022-09-20T11:34:56.753Z,101264.47
2022-09-20T11:38:11.938Z,101256.75
2022-09-20T11:41:20.603Z,101274.31
2022-09-20T11:44:24.158Z,101278.69
2022-09-20T11:47:53.354Z,101297.91
2022-09-20T11:51:21.843Z,101299.34
2022-09-20T11:54:40.544Z,101313.56
2022-09-20T11:57:43.860Z,101305.09
2022-09-20T12:00:50.072Z,101307.09
2022-09-20T12:04:20.672Z,101317.84
2022-09-20T12:07:26.035Z,101313.38
2022-09-20T12:10:34.121Z,101295.66
2022-09-20T12:13:40.233Z,101302.13
2022-09-20T12:16:50.693Z,101275.88
2022-09-20T12:19:53.682Z,101281.13
2022-09-20T12:24:14.308Z,101293.22
2022-09-20T12:27:59.189Z,101322.56
2022-09-20T12:31:39.593Z,101323.31
2022-09-20T12:34:42.633Z,101324.50
2022-09-20T12:37:45.657Z,101340.41
2022-09-20T12:41:04.335Z,101345.13
2022-09-20T12:44:31.354Z,101368.22
2022-09-20T12:47:37.408Z,101351.56
2022-09-20T12:50:58.219Z,101384.50
2022-09-20T12:54:07.474Z,101376.53
2022-09-20T12:57:25.417Z,101360.53
2022-09-20T13:00:39.466Z,101417.81
2022-09-20T13:03:44.869Z,101423.97
2022-09-20T13:06:49.001Z,101441.97
2022-09-20T13:09:52.174Z,101437.91
2022-09-20T13:13:02.953Z,101445.66
2022-09-20T13:16:08.276Z,101442.94
2022-09-20T13:19:19.478Z,101455.22
2022-09-20T13:22:27.178Z,101460.84
2022-09-20T13:25:30.340Z,101483.72
2022-09-20T13:28:41.507Z,101487.78
2022-09-20T13:31:45.918Z,101483.38
2022-09-20T13:35:07.347Z,101488.16
2022-09-20T13:38:11.432Z,101489.84
2022-09-20T13:41:14.620Z,101482.88
2022-09-20T13:44:18.464Z,101496.97
2022-09-20T13:47:28.593Z,101483.38
2022-09-20T13:50:38.620Z,101486.88
2022-09-20T13:53:44.866Z,101496.34
2022-09-20T13:56:48.924Z,101490.25
2022-09-20T13:59:52.754Z,101496.34
2022-09-20T14:02:58.769Z,101497.84
2022-09-20T14:06:04.102Z,101499.63
2022-09-20T14:09:22.824Z,101507.16
2022-09-20T14:12:27.592Z,101500.00
2022-09-20T14:15:36.577Z,101504.91
2022-09-20T14:18:43.576Z,101512.09
2022-09-20T14:21:47.539Z,101512.97
2022-09-20T14:25:03.140Z,101493.63
2022-09-20T14:28:20.329Z,101492.41
2022-09-20T14:31:26.764Z,101505.13
2022-09-20T14:34:31.430Z,101510.44
2022-09-20T14:37:42.600Z,101512.69
2022-09-20T14:40:48.373Z,101509.50
2022-09-20T14:44:05.552Z,101503.66
2022-09-20T14:47:15.547Z,101510.94
2022-09-20T14:50:29.478Z,101515.16
2022-09-20T14:53:32.820Z,101516.25
2022-09-20T14:56:39.601Z,101524.44
2022-09-20T14:59:44.989Z,101529.75
2022-09-20T15:02:48.826Z,101531.97
2022-09-20T15:05:53.831Z,101528.19
2022-09-20T15:08:57.016Z,101533.84
2022-09-20T15:12:05.678Z,101548.22
2022-09-20T15:15:15.207Z,101552.63
2022-09-20T15:18:22.724Z,101536.69
2022-09-20T15:21:27.234Z,101551.97
2022-09-20T15:24:30.596Z,101549.22
2022-09-20T15:27:33.740Z,101565.53
2022-09-20T15:30:37.599Z,101566.81
2022-09-20T15:33:41.223Z,101570.63
2022-09-20T15:36:45.738Z,101575.22
2022-09-20T15:39:49.551Z,101573.41
2022-09-20T15:42:58.118Z,101567.81
2022-09-20T15:46:17.419Z,101561.03
2022-09-20T15:49:20.740Z,101541.69
2022-09-20T15:52:25.550Z,101507.50
2022-09-20T15:55:28.537Z,101493.78
2022-09-20T15:58:36.173Z,101478.19
2022-09-20T16:01:42.497Z,101454.75
2022-09-20T16:04:45.495Z,101451.84
2022-09-20T16:07:49.824Z,101446.69
2022-09-20T16:10:58.089Z,101436.75
2022-09-20T16:14:01.919Z,101429.63
2022-09-20T16:17:04.948Z,101433.84
2022-09-20T16:20:08.468Z,101444.00
2022-09-20T16:23:16.654Z,101444.59
2022-09-20T16:26:24.841Z,101445.97
2022-09-20T16:29:29.434Z,101434.44
2022-09-20T16:32:33.460Z,101434.97
2022-09-20T16:35:36.796Z,101436.16
2022-09-20T16:38:42.123Z,101440.75
2022-09-20T16:41:47.862Z,101436.53
2022-09-20T16:44:53.908Z,101450.72
2022-09-20T16:47:58.097Z,101448.00
2022-09-20T16:51:01.307Z,101444.03
2022-09-20T16:54:12.416Z,101449.16
2022-09-20T16:57:15.825Z,101458.03
2022-09-20T17:00:20.922Z,101449.34
2022-09-20T17:03:27.031Z,101449.44
2022-09-20T17:06:30.494Z,101460.72
2022-09-20T17:09:35.315Z,101451.59
2022-09-20T17:12:43.422Z,101455.50
2022-09-20T17:15:46.902Z,101458.00
2022-09-20T17:18:55.899Z,101457.19
2022-09-20T17:22:00.133Z,101456.09
2022-09-20T17:25:08.424Z,101455.69
2022-09-20T17:28:11.525Z,101470.50
2022-09-20T17:31:17.380Z,101475.75
2022-09-20T17:34:21.777Z,101471.22
2022-09-20T17:37:25.042Z,101470.56
2022-09-20T17:40:29.446Z,101467.66
2022-09-20T17:43:34.138Z,101466.81
2022-09-20T17:46:39.368Z,101479.16
2022-09-20T17:49:42.704Z,101477.25
2022-09-20T17:52:46.941Z,101486.59
2022-09-20T17:55:55.967Z,101484.09
2022-09-20T17:59:00.366Z,101472.44
2022-09-20T18:02:03.443Z,101469.06
2022-09-20T18:05:07.675Z,101472.44
2022-09-20T18:08:10.883Z,101479.22
2022-09-20T18:11:16.074Z,101484.84
2022-09-20T18:14:21.186Z,101478.97
2022-09-20T18:17:25.614Z,101481.78
2022-09-20T18:20:29.250Z,101482.69
2022-09-20T18:23:32.355Z,101486.22
2022-09-20T18:26:38.325Z,101489.59
2022-09-20T18:29:41.241Z,101491.84
2022-09-20T18:32:44.462Z,101491.84
2022-09-20T18:35:47.486Z,101491.19
2022-09-20T18:38:54.752Z,101488.13
2022-09-20T18:42:00.040Z,101479.34
2022-09-20T18:45:03.012Z,101490.06
2022-09-20T18:48:07.745Z,101486.44
2022-09-20T18:51:13.452Z,101490.34
2022-09-20T18:54:20.170Z,101501.81
2022-09-20T18:57:36.893Z,101505.63
2022-09-20T19:00:40.521Z,101514.16
2022-09-20T19:03:57.619Z,101514.34
2022-09-20T19:07:10.441Z,101512.75
2022-09-20T19:10:25.156Z,101513.66
2022-09-20T19:13:45.182Z,101509.44
2022-09-20T19:16:56.500Z,101514.84
2022-09-20T19:20:15.811Z,101500.88
2022-09-20T19:23:42.939Z,101513.06
2022-09-20T19:26:49.128Z,101518.19
2022-09-20T19:29:56.628Z,101524.50
2022-09-20T19:33:02.775Z,101528.38
2022-09-20T19:36:11.427Z,101527.81
2022-09-20T19:39:30.334Z,101524.19
2022-09-20T19:42:53.091Z,101533.94
2022-09-20T19:46:14.159Z,101530.41
2022-09-20T19:49:46.809Z,101529.25
2022-09-20T19:52:52.734Z,101529.09
2022-09-20T19:56:05.117Z,101527.22
2022-09-20T19:59:12.799Z,101535.97
2022-09-20T20:02:19.670Z,101534.44
2022-09-20T20:05:30.216Z,101531.09
2022-09-20T20:08:41.831Z,101538.00
2022-09-20T20:12:05.467Z,101529.78
2022-09-20T20:15:44.415Z,101541.19
2022-09-20T20:19:38.789Z,101541.28
2022-09-20T20:23:24.303Z,101560.69
2022-09-20T20:26:38.288Z,101553.13
2022-09-20T20:29:41.313Z,101555.63
2022-09-20T20:32:44.510Z,101553.13
2022-09-20T20:35:55.687Z,101560.94
2022-09-20T20:39:00.760Z,101567.63
2022-09-20T20:42:08.367Z,101572.31
2022-09-20T20:45:13.395Z,101573.16
2022-09-20T20:48:16.433Z,101582.88
2022-09-20T20:51:23.132Z,101569.28
2022-09-20T20:54:26.815Z,101568.34
2022-09-20T20:57:31.460Z,101569.47
2022-09-20T21:00:34.610Z,101564.91
2022-09-20T21:03:37.848Z,101573.06
2022-09-20T21:06:42.680Z,101572.81
2022-09-20T21:09:46.871Z,101570.34
2022-09-20T21:12:53.066Z,101578.34
2022-09-20T21:15:56.096Z,101580.34
2022-09-20T21:18:59.877Z,101578.72
2022-09-20T21:22:04.227Z,101575.47
2022-09-20T21:25:08.946Z,101580.81
2022-09-20T21:28:11.936Z,101581.94
2022-09-20T21:31:14.980Z,101577.72
2022-09-20T21:34:18.183Z,101582.81
2022-09-20T21:37:22.765Z,101588.94
2022-09-20T21:40:26.086Z,101588.94
2022-09-20T21:43:32.564Z,101593.22
2022-09-20T21:46:40.146Z,101594.38
2022-09-20T21:49:43.231Z,101598.69
2022-09-20T21:52:48.538Z,101597.16
2022-09-20T21:55:58.394Z,101600.00
2022-09-20T21:59:03.784Z,101607.19
2022-09-20T22:02:07.118Z,101595.97
2022-09-20T22:05:11.453Z,101595.13
2022-09-20T22:08:16.123Z,101596.94
2022-09-20T22:11:20.903Z,101602.31
2022-09-20T22:14:24.559Z,101595.25
2022-09-20T22:17:29.518Z,101593.91
2022-09-20T22:20:32.487Z,101590.84
2022-09-20T22:23:37.257Z,101585.69
2022-09-20T22:26:43.223Z,101587.31
2022-09-20T22:29:46.232Z,101588.16
2022-09-20T22:32:49.317Z,101587.47
2022-09-20T22:35:52.502Z,101593.81
2022-09-20T22:38:57.213Z,101596.50
2022-09-20T22:42:00.159Z,101590.56
2022-09-20T22:45:03.131Z,101596.50
2022-09-20T22:48:06.186Z,101595.75
2022-09-20T22:51:11.803Z,101592.22
2022-09-20T22:54:16.208Z,101601.09
2022-09-20T22:57:19.270Z,101598.63
2022-09-20T23:00:22.531Z,101600.56
2022-09-20T23:03:25.592Z,101597.13
2022-09-20T23:06:32.109Z,101612.19
2022-09-20T23:09:36.413Z,101609.03
2022-09-20T23:12:39.841Z,101607.75
2022-09-20T23:15:42.860Z,101601.94
2022-09-20T23:18:46.698Z,101603.47
2022-09-20T23:21:52.543Z,101608.09
2022-09-20T23:24:56.828Z,101614.31
2022-09-20T23:27:59.888Z,101611.00
2022-09-20T23:31:05.603Z,101618.34
2022-09-20T23:34:10.547Z,101617.56
2022-09-20T23:37:13.596Z,101624.72
2022-09-20T23:40:18.206Z,101625.81
2022-09-20T23:43:21.312Z,101632.91
2022-09-20T23:46:27.093Z,101631.44
2022-09-20T23:49:30.191Z,101623.78
2022-09-20T23:52:33.189Z,101625.78
2022-09-20T23:55:37.463Z,101621.34
2022-09-20T23:58:42.566Z,101623.19
